Time;durP1;ratioP1;P1;durP2;ratioP2;P2;SDS_P1;SDS_P2;PMS_P1;PMS_P2;Temp;Humidity;BMP_temperature;BMP_pressure;BME280_temperature;BME280_humidity;BME280_pressure;Samples;Min_cycle;Max_cycle;Signal;HPM_P1;HPM_P2
2023/01/27 00:01:59;;;;;;;11.18;5.88;;;;;;;-7.29;64.32;100083.09;4771975;30;20220;-84
2023/01/27 00:04:25;;;;;;;6.25;4.85;;;;;;;-7.28;64.10;100071.84;4757189;30;20051;-85
2023/01/27 00:14:35;;;;;;;13.57;7.22;;;;;;;-7.37;64.34;100085.66;4754817;30;20171;-84
2023/01/27 00:18:27;;;;;;;;;;;;;;;;;;;;;
2023/01/27 00:25:31;;;;;;;11.73;5.60;;;;;;;-7.54;64.16;100055.28;4769504;29;20048;-84
2023/01/27 00:28:46;;;;;;;;;;;;;;;-7.42;64.17;100070.91;4761851;30;20147;-83
2023/01/27 00:35:40;;;;;;;7.90;4.50;;;;;;;-7.52;64.14;100069.13;4772369;30;20058;-85
2023/01/27 00:39:09;;;;;;;9.43;5.00;;;;;;;-7.68;63.98;100050.03;4735729;30;20056;-84
2023/01/27 00:42:17;;;;;;;12.15;5.50;;;;;;;-7.71;64.18;100053.50;4709525;30;20060;-85
2023/01/27 00:48:06;;;;;;;9.35;5.40;;;;;;;-7.62;64.41;100066.50;4736861;30;20150;-85
2023/01/27 00:50:31;;;;;;;11.13;5.22;;;;;;;-7.60;64.31;100072.59;4723625;30;20147;-84
2023/01/27 00:53:01;;;;;;;12.20;5.50;;;;;;;-7.52;64.17;100069.13;4723134;30;20391;-84
2023/01/27 00:55:26;;;;;;;11.10;5.55;;;;;;;-7.44;64.60;100067.47;4752294;30;20064;-85
2023/01/27 00:57:52;;;;;;;9.23;5.47;;;;;;;-7.45;64.23;100076.94;4737984;30;20444;-84
2023/01/27 01:00:18;;;;;;;12.90;6.53;;;;;;;-7.44;64.45;100067.47;4723010;30;20500;-84
2023/01/27 01:02:44;;;;;;;9.35;6.20;;;;;;;-7.46;64.05;100072.63;4722757;30;20157;-84
2023/01/27 01:05:10;;;;;;;8.93;5.88;;;;;;;-7.53;64.30;100076.06;4722948;30;20056;-84
2023/01/27 01:07:36;;;;;;;11.25;6.47;;;;;;;-7.55;64.59;100071.72;4752583;30;20414;-82
2023/01/27 01:10:02;;;;;;;10.00;5.55;;;;;;;-7.65;64.88;100068.22;4771996;30;20087;-84
2023/01/27 01:12:28;;;;;;;15.38;8.02;;;;;;;-7.65;65.19;100057.81;4773846;30;20047;-84
2023/01/27 01:14:54;;;;;;;13.85;8.32;;;;;;;-7.59;65.13;100057.88;4758579;30;20044;-84
2023/01/27 01:17:21;;;;;;;17.17;7.97;;;;;;;-7.53;65.13;100054.41;4758929;30;20054;-83
2023/01/27 01:19:46;;;;;;;15.20;7.65;;;;;;;-7.61;65.03;100065.63;4758833;30;20051;-84
2023/01/27 01:22:12;;;;;;;16.48;8.38;;;;;;;-7.70;65.44;100055.22;4759168;30;20055;-83
2023/01/27 01:24:40;;;;;;;12.52;7.43;;;;;;;-7.71;65.31;100056.09;4774482;30;20051;-84
2023/01/27 01:27:05;;;;;;;16.70;8.85;;;;;;;-7.72;65.08;100050.88;4759395;30;20047;-85
2023/01/27 01:29:31;;;;;;;13.82;6.80;;;;;;;-7.67;65.16;100039.66;4774825;30;20065;-84
2023/01/27 01:31:58;;;;;;;17.80;8.85;;;;;;;-7.77;64.89;100044.78;4773530;30;20051;-85
2023/01/27 01:34:24;;;;;;;16.45;8.43;;;;;;;-7.83;64.87;100049.06;4773705;30;20108;-84
2023/01/27 01:36:50;;;;;;;12.85;8.45;;;;;;;-7.86;64.90;100040.41;4773465;30;20100;-84
2023/01/27 01:39:16;;;;;;;16.27;8.52;;;;;;;-7.88;65.25;100040.41;4773964;30;20500;-83
2023/01/27 01:41:42;;;;;;;17.63;8.23;;;;;;;-7.96;65.35;100041.22;4759404;30;20047;-86
2023/01/27 01:44:29;;;;;;;17.02;8.30;;;;;;;-7.91;65.12;100049.91;4758957;30;20063;-85
2023/01/27 01:46:55;;;;;;;15.55;8.35;;;;;;;-7.90;65.63;100042.16;4758672;30;20054;-86
2023/01/27 01:49:31;;;;;;;12.48;6.78;;;;;;;-8.02;65.54;100036.84;4743750;30;20043;-85
2023/01/27 01:52:01;;;;;;;16.75;7.90;;;;;;;-8.09;65.58;100040.28;4758397;30;20055;-85
2023/01/27 01:54:35;;;;;;;17.70;7.80;;;;;;;-8.01;65.70;100037.72;4758017;30;20137;-85
2023/01/27 01:57:07;;;;;;;17.88;7.82;;;;;;;-8.02;65.43;100041.19;4758526;30;20055;-85
2023/01/27 01:59:39;;;;;;;15.23;8.23;;;;;;;-8.14;65.65;100032.47;4758407;30;20094;-84
2023/01/27 02:02:10;;;;;;;10.85;7.10;;;;;;;-8.02;65.56;100043.78;4773121;30;20492;-84
2023/01/27 02:04:42;;;;;;;10.77;7.13;;;;;;;-8.08;65.43;100048.09;4743541;30;20051;-87
2023/01/27 02:07:12;;;;;;;8.70;5.03;;;;;;;-8.23;65.57;100058.34;4743477;30;20142;-86
2023/01/27 02:09:38;;;;;;;10.07;6.28;;;;;;;-8.29;65.99;100041.88;4758018;30;20043;-85
2023/01/27 02:12:07;;;;;;;10.95;6.10;;;;;;;-8.22;65.77;100047.13;4772971;30;20138;-85
2023/01/27 02:14:35;;;;;;;15.02;6.78;;;;;;;-8.21;66.26;100037.59;4759026;30;20120;-85
2023/01/27 02:17:21;;;;;;;8.25;5.30;;;;;;;-8.34;66.01;100031.47;4763684;30;20131;-85
2023/01/27 02:19:56;;;;;;;12.18;5.97;;;;;;;-8.36;66.21;100040.97;4772998;30;20466;-86
2023/01/27 02:22:56;;;;;;;15.02;6.68;;;;;;;-8.17;66.09;100053.19;4758881;30;20054;-85
2023/01/27 02:25:34;;;;;;;11.25;6.57;;;;;;;-8.02;65.98;100052.44;4781269;30;20055;-85
2023/01/27 02:28:07;;;;;;;11.32;6.20;;;;;;;-7.96;65.93;100054.22;4777008;30;20051;-84
2023/01/27 02:30:33;;;;;;;11.40;7.35;;;;;;;-7.96;65.31;100049.88;4772891;30;20519;-85
2023/01/27 02:32:59;;;;;;;9.05;5.63;;;;;;;-7.99;65.48;100049.00;4772434;30;20047;-86
2023/01/27 02:35:41;;;;;;;15.30;6.72;;;;;;;-7.94;65.58;100045.53;4757427;30;20043;-85
2023/01/27 02:38:10;;;;;;;14.73;6.78;;;;;;;-7.95;65.39;100051.59;4757825;30;20047;-86
2023/01/27 02:40:36;;;;;;;9.38;5.90;;;;;;;-7.98;65.82;100053.31;4757716;30;20143;-87
2023/01/27 02:43:04;;;;;;;14.82;6.82;;;;;;;-7.88;65.92;100063.75;4773140;30;20054;-86
2023/01/27 02:45:30;;;;;;;12.88;6.38;;;;;;;-7.82;65.66;100070.72;4788857;30;20047;-86
2023/01/27 02:47:56;;;;;;;14.68;7.20;;;;;;;-7.83;65.47;100063.78;4772776;29;20146;-85
2023/01/27 02:50:22;;;;;;;10.45;6.55;;;;;;;-7.84;65.72;100067.25;4744160;30;20104;-86
2023/01/27 02:52:48;;;;;;;13.18;7.32;;;;;;;-7.85;65.48;100073.31;4764091;30;20051;-87
2023/01/27 02:55:15;;;;;;;9.90;6.50;;;;;;;-7.79;65.37;100065.53;4759298;30;20055;-85
2023/01/27 02:57:40;;;;;;;9.38;6.30;;;;;;;-7.78;65.44;100067.28;4788649;30;20059;-87
2023/01/27 03:00:38;;;;;;;13.98;6.57;;;;;;;-7.73;65.35;100064.72;4778257;30;20054;-86
2023/01/27 03:03:04;;;;;;;15.93;7.63;;;;;;;-7.71;65.41;100068.16;4757597;30;20055;-86
2023/01/27 03:05:30;;;;;;;12.40;5.85;;;;;;;-7.75;65.02;100066.41;4772018;30;20082;-87
2023/01/27 03:07:56;;;;;;;8.40;5.80;;;;;;;-7.74;65.44;100078.56;4757113;30;20055;-87
2023/01/27 03:10:22;;;;;;;16.15;7.43;;;;;;;-7.72;65.46;100067.31;4757255;30;20055;-87
2023/01/27 03:12:49;;;;;;;12.88;7.10;;;;;;;-7.76;65.10;100057.78;4772332;30;20057;-86
2023/01/27 03:18:11;;;;;;;15.63;7.13;;;;;;;-7.62;65.16;100076.03;4788606;30;20047;-86
2023/01/27 03:20:44;;;;;;;9.77;5.95;;;;;;;-7.65;64.89;100079.47;4772328;30;20488;-87
2023/01/27 03:23:14;;;;;;;12.95;7.43;;;;;;;-7.69;65.01;100066.47;4772750;30;20108;-86
2023/01/27 03:25:47;;;;;;;13.35;6.88;;;;;;;-7.77;65.39;100073.34;4774522;29;20110;-85
2023/01/27 03:28:14;;;;;;;13.43;6.75;;;;;;;-7.81;65.55;100077.66;4743010;30;20043;-84
2023/01/27 03:31:08;;;;;;;13.85;6.90;;;;;;;-7.73;65.61;100086.34;4745746;30;20051;-87
2023/01/27 03:33:44;;;;;;;18.27;7.75;;;;;;;-7.82;65.46;100068.13;4744310;30;20081;-87
2023/01/27 03:47:29;;;;;;;15.20;8.30;;;;;;;-7.92;65.55;100095.75;4771843;30;20051;-84
2023/01/27 03:49:55;;;;;;;9.48;6.07;;;;;;;-7.93;65.52;100106.13;4787663;30;20055;-82
2023/01/27 03:52:20;;;;;;;13.02;7.80;;;;;;;-7.98;65.89;100106.06;4756801;30;20058;-83
2023/01/27 03:54:47;;;;;;;15.82;7.13;;;;;;;-7.92;65.64;100113.03;4786858;30;20067;-83
2023/01/27 03:57:13;;;;;;;13.05;7.68;;;;;;;-7.91;65.86;100113.03;4757785;30;20047;-84
2023/01/27 03:59:39;;;;;;;10.73;7.32;;;;;;;-7.92;65.51;100118.22;4772869;29;20057;-91
2023/01/27 04:07:35;;;;;;;16.92;8.70;;;;;;;-7.84;65.69;100099.25;4760627;30;20047;-87
2023/01/27 04:10:01;;;;;;;16.73;7.47;;;;;;;-7.75;65.37;100114.00;4792450;30;20066;-82
2023/01/27 04:12:28;;;;;;;13.75;7.85;;;;;;;-7.75;65.53;100113.13;4776282;30;20051;-84
2023/01/27 04:14:54;;;;;;;15.27;7.75;;;;;;;-7.67;65.29;100109.75;4746905;30;20184;-84
2023/01/27 04:17:20;;;;;;;19.33;8.30;;;;;;;-7.64;65.51;100108.88;4762334;30;20050;-87
2023/01/27 04:19:46;;;;;;;14.25;7.80;;;;;;;-7.53;65.29;100114.13;4792012;30;20055;-84
2023/01/27 04:22:14;;;;;;;16.73;8.02;;;;;;;-7.51;64.75;100115.88;4762702;30;20055;-81
2023/01/27 04:24:40;;;;;;;14.93;7.40;;;;;;;-7.42;65.11;100105.53;4792913;30;20055;-81
2023/01/27 04:27:12;;;;;;;14.88;6.53;;;;;;;-7.39;64.74;100100.34;4775241;30;20127;-85
2023/01/27 04:29:40;;;;;;;11.73;5.82;;;;;;;-7.42;64.38;100115.06;4790724;30;20145;-81
2023/01/27 04:32:08;;;;;;;14.50;6.18;;;;;;;-7.44;64.22;100109.00;4791044;30;20043;-83
2023/01/27 04:34:38;;;;;;;12.73;5.93;;;;;;;-7.39;64.17;100112.47;4789813;30;20124;-82
2023/01/27 04:37:05;;;;;;;10.75;6.50;;;;;;;-7.48;64.22;100115.91;4774491;30;20054;-82
2023/01/27 04:39:31;;;;;;;11.48;6.53;;;;;;;-7.36;64.37;100115.09;4759480;30;20074;-82
2023/01/27 04:41:57;;;;;;;11.18;6.55;;;;;;;-7.24;64.31;100111.69;4759367;30;20079;-82
2023/01/27 04:44:23;;;;;;;24.42;6.32;;;;;;;-7.23;64.27;100109.06;4759646;30;20104;-84
2023/01/27 04:46:50;;;;;;;15.82;7.00;;;;;;;-7.27;63.89;100106.47;4774219;30;20138;-83
2023/01/27 04:49:17;;;;;;;8.55;5.60;;;;;;;-7.23;63.74;100126.41;4774701;30;20534;-89
2023/01/27 04:51:43;;;;;;;13.10;5.68;;;;;;;-7.18;63.68;100122.97;4774345;30;20047;-84
2023/01/27 04:54:09;;;;;;;15.30;6.20;;;;;;;-7.16;63.78;100126.44;4774577;30;20075;-91
2023/01/27 04:56:37;;;;;;;14.88;7.03;;;;;;;-7.07;63.58;100120.38;4774447;30;20059;-83
2023/01/27 04:59:06;;;;;;;15.10;6.30;;;;;;;-6.97;63.31;100111.78;4789866;29;20063;-82
2023/01/27 05:01:32;;;;;;;14.85;4.50;;;;;;;-7.03;63.11;100116.97;4753736;29;20499;-83
2023/01/27 05:03:58;;;;;;;18.70;6.30;;;;;;;-7.06;63.04;100109.16;4777259;29;20055;-84
2023/01/27 05:06:25;;;;;;;10.27;6.20;;;;;;;-7.02;62.95;100113.50;4753702;30;20525;-83
2023/01/27 05:08:51;;;;;;;16.00;7.05;;;;;;;-6.91;62.73;100127.41;4760541;29;20076;-88
2023/01/27 05:11:17;;;;;;;14.18;6.97;;;;;;;-6.88;62.55;100124.81;4767972;29;20150;-85
2023/01/27 05:13:44;;;;;;;11.70;5.93;;;;;;;-6.99;62.38;100133.44;4758821;30;20047;-82
2023/01/27 05:16:14;;;;;;;13.50;7.03;;;;;;;-6.83;62.82;100119.63;4760754;30;20162;-82
2023/01/27 05:18:41;;;;;;;12.23;6.55;;;;;;;-6.77;62.55;100118.75;4759851;30;20044;-83
2023/01/27 05:21:12;;;;;;;10.80;6.20;;;;;;;-6.92;62.61;100127.38;4759812;30;20104;-80
2023/01/27 05:23:38;;;;;;;11.05;6.70;;;;;;;-6.77;63.65;100118.75;4744255;30;20065;-82
2023/01/27 05:26:13;;;;;;;10.40;5.25;;;;;;;-6.67;62.74;100125.72;4745263;30;20129;-87
2023/01/27 05:28:41;;;;;;;12.73;6.60;;;;;;;-6.62;62.36;100124.88;4766339;30;20051;-88
2023/01/27 05:31:22;;;;;;;8.70;6.15;;;;;;;-6.52;62.18;100115.34;4769123;30;20407;-83
2023/01/27 05:33:50;;;;;;;12.95;6.32;;;;;;;-6.53;61.55;100133.56;4772443;30;20058;-90
2023/01/27 05:36:18;;;;;;;7.33;4.60;;;;;;;-6.56;61.42;100131.81;4751937;30;20047;-81
2023/01/27 05:38:44;;;;;;;12.40;5.90;;;;;;;-6.63;61.58;100133.53;4759098;30;20301;-81
2023/01/27 05:41:11;;;;;;;23.58;7.35;;;;;;;-6.63;61.97;100130.91;4759161;30;20058;-84
2023/01/27 05:43:39;;;;;;;14.50;5.78;;;;;;;-6.45;61.31;100137.03;4774854;30;20074;-89
2023/01/27 05:46:14;;;;;;;10.18;6.18;;;;;;;-6.54;61.12;100132.69;4773582;30;20047;-82
2023/01/27 05:48:45;;;;;;;16.17;8.38;;;;;;;-6.55;61.19;100133.53;4744609;30;20516;-84
2023/01/27 05:51:12;;;;;;;17.42;8.07;;;;;;;-6.39;61.41;100132.72;4779485;30;20051;-84
2023/01/27 05:53:37;;;;;;;12.05;7.35;;;;;;;-6.30;60.94;100136.19;4761991;30;20058;-83
2023/01/27 05:56:04;;;;;;;12.90;8.93;;;;;;;-6.24;60.36;100130.97;4746980;30;20059;-80
2023/01/27 05:58:30;;;;;;;20.48;9.40;;;;;;;-6.37;60.56;100145.72;4775416;30;20480;-84
2023/01/27 06:01:06;;;;;;;17.70;7.63;;;;;;;-6.31;60.73;100144.84;4762336;30;20067;-83
2023/01/27 06:03:32;;;;;;;11.82;7.72;;;;;;;-6.36;60.21;100147.44;4758399;30;20134;-86
2023/01/27 06:06:03;;;;;;;14.68;7.13;;;;;;;-6.36;60.01;100137.91;4758388;30;20053;-82
2023/01/27 06:08:29;;;;;;;9.13;6.20;;;;;;;-6.39;60.14;100142.25;4789226;30;20051;-83
2023/01/27 06:10:55;;;;;;;12.63;8.27;;;;;;;-6.27;60.29;100141.41;4773232;30;20051;-84
2023/01/27 06:13:22;;;;;;;15.80;7.60;;;;;;;-6.30;59.66;100137.03;4773290;30;20055;-82
2023/01/27 06:15:49;;;;;;;14.45;8.48;;;;;;;-6.02;60.33;100144.84;4773177;30;20062;-83
2023/01/27 06:18:16;;;;;;;11.13;7.82;;;;;;;-5.94;59.48;100131.00;4789627;30;20138;-83
2023/01/27 06:20:43;;;;;;;13.32;8.32;;;;;;;-5.72;59.41;100142.19;4773343;30;20047;-83
2023/01/27 06:23:10;;;;;;;18.60;9.20;;;;;;;-5.68;58.69;100136.13;4759168;30;20170;-83
2023/01/27 06:25:41;;;;;;;12.88;7.85;;;;;;;-5.39;58.64;100135.19;4760723;29;20047;-82
2023/01/27 06:28:08;;;;;;;16.52;5.65;;;;;;;-5.26;57.86;100147.31;4743692;30;20050;-83
2023/01/27 06:30:36;;;;;;;12.00;6.28;;;;;;;-5.34;57.62;100143.88;4772711;30;20479;-82
2023/01/27 06:33:03;;;;;;;9.85;6.47;;;;;;;-5.42;57.52;100135.19;4773039;30;20047;-82
2023/01/27 06:35:30;;;;;;;11.18;6.20;;;;;;;-5.36;57.81;100140.41;4773650;30;20130;-83
2023/01/27 06:38:00;;;;;;;13.02;5.95;;;;;;;-5.26;57.78;100136.91;4791296;30;20059;-83
2023/01/27 06:40:28;;;;;;;20.08;6.20;;;;;;;-5.28;57.51;100133.41;4761645;30;20051;-83
2023/01/27 06:42:54;;;;;;;17.92;7.22;;;;;;;-5.28;57.54;100136.03;4758066;30;20162;-81
2023/01/27 06:45:20;;;;;;;13.85;6.45;;;;;;;-5.21;57.06;100124.72;4743342;30;20108;-84
2023/01/27 06:47:57;;;;;;;13.65;6.65;;;;;;;-5.15;57.06;100137.72;4773213;30;20051;-85
2023/01/27 06:50:23;;;;;;;20.45;6.57;;;;;;;-5.05;57.40;100146.34;4774068;30;20051;-86
2023/01/27 06:52:50;;;;;;;13.00;7.10;;;;;;;-5.00;56.92;100138.50;4773712;30;20496;-88
2023/01/27 06:55:17;;;;;;;8.82;6.18;;;;;;;-4.90;56.54;100137.59;4757765;30;20107;-84
2023/01/27 06:57:47;;;;;;;18.75;7.68;;;;;;;-4.81;56.45;100134.97;4792589;30;20092;-84
2023/01/27 07:00:15;;;;;;;14.05;7.70;;;;;;;-4.70;56.70;100145.31;4773014;30;20079;-86
2023/01/27 07:02:42;;;;;;;17.85;7.38;;;;;;;-4.67;56.30;100140.97;4772344;30;20120;-84
2023/01/27 07:05:08;;;;;;;16.27;7.68;;;;;;;-4.66;56.41;100139.25;4758040;30;20047;-81
2023/01/27 07:07:34;;;;;;;10.13;6.20;;;;;;;-4.49;56.29;100141.75;4758181;30;20419;-83
2023/01/27 07:10:04;;;;;;;11.20;5.75;;;;;;;-4.52;55.88;100131.31;4772820;30;20144;-83
2023/01/27 07:12:29;;;;;;;10.27;5.25;;;;;;;-4.57;55.60;100133.09;4758852;30;20073;-84
2023/01/27 07:14:55;;;;;;;10.77;6.30;;;;;;;-4.58;55.88;100134.84;4773601;30;20047;-84
2023/01/27 07:17:21;;;;;;;10.93;5.30;;;;;;;-4.38;55.43;100142.53;4759340;30;20142;-81
2023/01/27 07:19:47;;;;;;;15.07;6.00;;;;;;;-4.34;55.21;100140.78;4744778;30;20051;-83
2023/01/27 07:22:13;;;;;;;15.30;5.90;;;;;;;-4.34;54.86;100144.25;4773475;30;20149;-83
2023/01/27 07:24:39;;;;;;;10.88;5.55;;;;;;;-4.28;54.75;100140.75;4757134;30;20051;-85
2023/01/27 07:27:05;;;;;;;8.20;5.93;;;;;;;-4.43;54.68;100141.72;4742308;30;20047;-83
2023/01/27 07:29:33;;;;;;;12.07;6.03;;;;;;;-4.23;55.23;100138.94;4788050;30;20134;-85
2023/01/27 07:31:59;;;;;;;11.52;6.30;;;;;;;-4.08;54.70;100137.97;4742531;30;20485;-86
2023/01/27 07:34:24;;;;;;;12.27;6.22;;;;;;;-4.05;54.91;100124.91;4757222;29;20055;-85
2023/01/27 07:36:51;;;;;;;13.63;6.22;;;;;;;-4.00;54.57;100128.31;4774579;30;20550;-84
2023/01/27 07:39:17;;;;;;;8.90;5.22;;;;;;;-3.97;54.41;100115.25;4760784;30;20048;-84
2023/01/27 07:41:42;;;;;;;9.60;5.70;;;;;;;-4.23;53.67;100126.75;4760541;30;20058;-83
2023/01/27 07:44:13;;;;;;;14.02;6.35;;;;;;;-4.09;54.68;100115.38;4775926;30;20138;-85
2023/01/27 07:46:39;;;;;;;10.13;5.15;;;;;;;-4.16;53.94;100119.75;4777634;30;20078;-87
2023/01/27 07:49:05;;;;;;;9.98;6.05;;;;;;;-4.04;54.03;100108.34;4759323;30;20054;-84
2023/01/27 07:51:31;;;;;;;12.70;5.78;;;;;;;-4.01;53.98;100119.63;4776471;30;20085;-88
2023/01/27 07:54:00;;;;;;;11.60;6.05;;;;;;;-4.03;53.87;100107.47;4776882;30;20051;-86
2023/01/27 07:56:26;;;;;;;11.65;5.93;;;;;;;-3.75;57.50;100111.56;4779812;30;20119;-85
2023/01/27 07:58:52;;;;;;;12.10;5.28;;;;;;;-3.59;54.21;100117.50;4783169;30;20104;-86
2023/01/27 08:01:18;;;;;;;16.63;6.47;;;;;;;-3.51;53.60;100120.03;4803790;30;20031;-90
2023/01/27 08:03:44;;;;;;;14.48;5.35;;;;;;;-3.49;53.42;100123.50;4786969;30;20039;-90
2023/01/27 08:06:11;;;;;;;7.70;5.22;;;;;;;-3.51;52.81;100112.19;4784756;29;20083;-84
2023/01/27 08:08:38;;;;;;;17.65;6.05;;;;;;;-3.47;52.74;100121.72;4777725;30;20081;-91
2023/01/27 08:11:09;;;;;;;28.23;7.07;;;;;;;-3.57;53.22;100120.06;4778854;30;20047;-87
2023/01/27 08:13:35;;;;;;;9.70;4.95;;;;;;;-3.39;53.30;100114.66;4766352;30;20112;-88
2023/01/27 08:16:04;;;;;;;16.05;5.75;;;;;;;-3.69;53.13;100108.00;4795390;30;20066;-90
2023/01/27 08:18:32;;;;;;;11.98;5.72;;;;;;;-3.60;53.47;100101.84;4777465;30;20047;-88
2023/01/27 08:21:06;;;;;;;8.93;4.85;;;;;;;-3.62;53.44;100108.81;4758569;30;20056;-85
2023/01/27 08:23:32;;;;;;;19.27;6.18;;;;;;;-3.51;53.74;100105.22;4781064;29;20101;-84
2023/01/27 08:26:00;;;;;;;12.38;5.97;;;;;;;-3.44;53.61;100112.09;4790314;29;20062;-79
2023/01/27 08:28:38;;;;;;;10.57;5.20;;;;;;;-3.39;53.00;100106.81;4790768;30;20051;-83
2023/01/27 08:31:04;;;;;;;16.92;6.93;;;;;;;-3.34;53.16;100125.94;4775605;30;20320;-84
2023/01/27 08:33:34;;;;;;;10.55;5.93;;;;;;;-3.38;53.54;100111.19;4795755;30;20051;-86
2023/01/27 08:36:10;;;;;;;16.70;7.35;;;;;;;-3.25;53.34;100106.69;4774512;30;20472;-87
2023/01/27 08:38:36;;;;;;;14.82;6.80;;;;;;;-2.98;53.80;100119.41;4774779;30;20050;-85
2023/01/27 08:41:14;;;;;;;14.38;7.07;;;;;;;-2.85;52.96;100107.06;4791321;30;20143;-84
2023/01/27 08:43:43;;;;;;;12.93;6.55;;;;;;;-2.65;52.63;100113.75;4760641;30;20116;-90
2023/01/27 08:46:32;;;;;;;9.93;5.93;;;;;;;-2.55;52.39;100110.13;4786492;30;20112;-85
2023/01/27 08:48:58;;;;;;;13.18;6.10;;;;;;;-2.57;51.77;100104.03;4791461;30;20051;-85
2023/01/27 08:51:24;;;;;;;15.00;6.43;;;;;;;-2.48;52.25;100101.31;4776156;30;20051;-85
2023/01/27 08:53:50;;;;;;;10.95;6.03;;;;;;;-2.15;52.29;100099.03;4774506;30;20095;-84
2023/01/27 08:56:16;;;;;;;9.90;5.57;;;;;;;-2.30;51.31;100100.13;4756646;30;20186;-83
2023/01/27 08:58:51;;;;;;;9.60;5.32;;;;;;;-2.49;51.36;100096.94;4786110;30;20496;-84
2023/01/27 09:01:23;;;;;;;13.27;5.18;;;;;;;-2.64;52.13;100081.47;4756634;30;20055;-85
2023/01/27 09:03:49;;;;;;;16.60;4.65;;;;;;;-2.56;51.51;100092.66;4756984;30;20523;-85
2023/01/27 09:06:15;;;;;;;6.97;5.07;;;;;;;-2.43;51.76;100089.00;4786826;30;20051;-85
2023/01/27 09:08:43;;;;;;;7.05;4.53;;;;;;;-2.30;51.53;100100.13;4787668;30;20515;-85
2023/01/27 09:11:15;;;;;;;7.60;4.10;;;;;;;-2.34;51.16;100087.97;4773576;30;20555;-92
2023/01/27 09:13:41;;;;;;;8.70;4.63;;;;;;;-2.17;51.46;100090.34;4771881;30;20094;-87
2023/01/27 09:16:08;;;;;;;9.18;4.40;;;;;;;-2.20;51.59;100092.13;4774164;30;20056;-89
2023/01/27 09:18:37;;;;;;;7.43;4.45;;;;;;;-2.14;50.63;100092.91;4772077;30;20165;-87
2023/01/27 09:21:06;;;;;;;6.43;4.03;;;;;;;-2.05;51.03;100084.91;4786322;30;20058;-86
2023/01/27 09:23:33;;;;;;;15.07;4.30;;;;;;;-2.10;50.50;100100.69;4771683;30;20051;-79
2023/01/27 09:25:59;;;;;;;5.63;3.50;;;;;;;-2.15;50.83;100110.38;4773938;30;20068;-94
2023/01/27 09:28:25;;;;;;;6.60;3.88;;;;;;;-2.10;50.81;100107.69;4756650;30;20109;-86
2023/01/27 09:30:55;;;;;;;15.88;4.55;;;;;;;-1.95;50.81;100096.97;4770628;30;20051;-87
2023/01/27 09:33:21;;;;;;;12.45;4.40;;;;;;;-1.81;50.84;100094.94;4771840;30;20059;-81
2023/01/27 09:36:14;;;;;;;6.90;4.53;;;;;;;-1.77;50.68;100107.13;4755404;30;20142;-83
2023/01/27 09:38:48;;;;;;;9.25;4.35;;;;;;;-1.95;50.60;100096.97;4756375;30;20044;-84
2023/01/27 09:41:34;;;;;;;4.63;3.22;;;;;;;-1.89;50.27;100104.69;4785131;30;20101;-85
2023/01/27 09:44:06;;;;;;;6.60;3.60;;;;;;;-2.14;50.79;100095.50;4755410;30;20552;-84
2023/01/27 09:46:56;;;;;;;5.38;3.65;;;;;;;-2.49;50.46;100087.31;4772107;30;20047;-84
2023/01/27 09:50:08;;;;;;;9.50;3.67;;;;;;;-2.52;51.28;100083.88;4769538;30;20078;-88
2023/01/27 09:53:23;;;;;;;9.18;3.30;;;;;;;-2.50;51.16;100085.59;4755216;30;20052;-86
2023/01/27 09:56:07;;;;;;;8.57;3.88;;;;;;;-2.60;51.40;100081.38;4742173;30;20078;-84
2023/01/27 09:59:06;;;;;;;5.50;3.25;;;;;;;-2.78;51.69;100082.53;4767139;30;20051;-82
2023/01/27 10:01:57;;;;;;;9.30;3.25;;;;;;;-2.99;51.75;100075.81;4754396;30;20075;-87
2023/01/27 10:04:39;;;;;;;8.70;3.50;;;;;;;-2.98;51.82;100082.78;4767777;30;20059;-83
2023/01/27 10:07:15;;;;;;;5.18;2.80;;;;;;;-2.98;52.25;100074.94;4754564;30;20048;-83
2023/01/27 10:10:16;;;;;;;10.80;3.72;;;;;;;-2.97;52.41;100086.25;4769420;30;20055;-83
2023/01/27 10:12:42;;;;;;;8.10;3.80;;;;;;;-2.76;52.21;100080.75;4783983;30;20055;-84
2023/01/27 10:15:31;;;;;;;8.70;3.67;;;;;;;-3.05;52.35;100075.91;4769226;30;20058;-83
2023/01/27 10:18:21;;;;;;;6.45;4.10;;;;;;;-3.04;52.50;100075.03;4754417;30;20144;-86
2023/01/27 10:21:11;;;;;;;11.90;4.00;;;;;;;-2.97;52.36;100079.31;4767430;30;20068;-84
2023/01/27 10:24:09;;;;;;;11.65;3.97;;;;;;;-3.10;52.24;100063.78;4753602;30;20087;-85
2023/01/27 10:26:41;;;;;;;4.75;3.00;;;;;;;-3.10;52.44;100069.00;4719847;30;20060;-83
2023/01/27 10:29:36;;;;;;;6.60;3.28;;;;;;;-3.08;51.98;100077.72;4722909;30;20044;-83
2023/01/27 10:32:19;;;;;;;4.10;2.38;;;;;;;-3.18;51.54;100069.97;4751645;30;20063;-83
2023/01/27 10:34:51;;;;;;;5.55;3.45;;;;;;;-3.30;52.13;100083.22;4737427;30;20052;-83
2023/01/27 10:37:28;;;;;;;6.28;3.47;;;;;;;-3.28;52.27;100081.41;4751600;30;20143;-83
2023/01/27 10:40:03;;;;;;;6.03;3.20;;;;;;;-3.26;52.15;100069.22;4747520;30;20047;-82
2023/01/27 10:43:04;;;;;;;6.78;3.85;;;;;;;-3.26;52.14;100063.97;4774464;30;20052;-82
2023/01/27 10:45:36;;;;;;;6.50;3.00;;;;;;;-3.24;52.17;100075.28;4771061;30;20050;-83
2023/01/27 10:48:20;;;;;;;6.13;3.50;;;;;;;-3.28;52.52;100091.88;4773844;30;20536;-83
2023/01/27 10:51:09;;;;;;;9.38;3.78;;;;;;;-3.31;52.38;100086.72;4771923;30;20047;-82
2023/01/27 10:54:10;;;;;;;6.40;3.80;;;;;;;-3.19;52.86;100099.63;4771176;30;20060;-82
2023/01/27 10:56:58;;;;;;;5.93;3.88;;;;;;;-3.08;52.45;100094.28;4727966;30;20138;-85
2023/01/27 10:59:40;;;;;;;11.73;5.22;;;;;;;-3.10;52.50;100105.63;4766985;30;20531;-84
2023/01/27 11:02:15;;;;;;;10.10;3.97;;;;;;;-3.14;52.41;100090.84;4751287;30;20044;-86
2023/01/27 11:04:57;;;;;;;8.30;3.60;;;;;;;-2.99;52.49;100088.03;4742288;30;20044;-84
2023/01/27 11:07:24;;;;;;;5.32;3.15;;;;;;;-3.03;51.98;100088.97;4733957;30;20156;-84
2023/01/27 11:10:07;;;;;;;6.65;4.18;;;;;;;-3.04;52.58;100097.72;4718683;30;20063;-85
2023/01/27 11:12:38;;;;;;;10.07;4.28;;;;;;;-2.92;52.33;100100.16;4734849;30;20051;-84
2023/01/27 11:15:22;;;;;;;9.40;4.32;;;;;;;-3.02;52.16;100107.25;4735436;30;20052;-84
2023/01/27 11:17:56;;;;;;;7.65;3.90;;;;;;;-3.01;52.06;100105.50;4734853;30;20612;-86
2023/01/27 11:20:37;;;;;;;9.00;3.90;;;;;;;-3.22;52.28;100102.28;4737182;30;20472;-88
2023/01/27 11:23:21;;;;;;;8.55;3.70;;;;;;;-3.29;52.28;100103.22;4720883;30;20542;-87
2023/01/27 11:26:25;;;;;;;6.13;3.70;;;;;;;-3.51;52.26;100086.06;4720529;30;20453;-85
2023/01/27 11:29:09;;;;;;;9.93;4.03;;;;;;;-3.53;52.42;100108.75;4719079;30;20056;-86
2023/01/27 11:31:55;;;;;;;7.70;3.10;;;;;;;-3.62;52.76;100111.44;4718413;30;20499;-85
2023/01/27 11:34:30;;;;;;;7.40;3.97;;;;;;;-3.74;52.99;100101.97;4720777;30;20079;-86
2023/01/27 11:36:56;;;;;;;7.57;3.70;;;;;;;-3.94;53.42;100100.41;4753583;30;20056;-86
2023/01/27 11:39:23;;;;;;;5.80;3.30;;;;;;;-3.94;53.96;100108.25;4752914;30;20097;-86
2023/01/27 11:41:54;;;;;;;6.13;3.38;;;;;;;-4.08;54.17;100111.88;4746768;30;20064;-86
2023/01/27 11:44:30;;;;;;;8.65;3.55;;;;;;;-4.10;54.18;100105.78;4786665;30;20050;-90
2023/01/27 11:46:57;;;;;;;6.25;4.30;;;;;;;-4.20;54.06;100108.47;4755713;30;20059;-84
2023/01/27 11:49:41;;;;;;;6.65;3.80;;;;;;;-4.23;54.42;100092.81;4771141;30;20507;-86
2023/01/27 11:52:12;;;;;;;10.32;4.25;;;;;;;-4.19;54.64;100099.75;4771160;30;20111;-84
2023/01/27 11:54:45;;;;;;;12.77;3.78;;;;;;;-4.25;54.68;100099.81;4771026;30;20055;-82
2023/01/27 11:57:21;;;;;;;8.02;4.28;;;;;;;-3.42;59.77;100099.03;4791678;30;20105;-86
2023/01/27 11:59:52;;;;;;;6.07;3.22;;;;;;;-3.57;56.96;100078.28;4758626;30;20055;-84
2023/01/27 12:02:28;;;;;;;9.93;4.50;;;;;;;-3.85;54.17;100075.94;4757944;30;20464;-81
2023/01/27 12:05:03;;;;;;;11.07;5.00;;;;;;;-3.97;54.01;100079.56;4774014;30;20052;-83
2023/01/27 12:07:44;;;;;;;10.13;4.68;;;;;;;-3.86;54.41;100087.28;4774516;30;20084;-86
2023/01/27 12:10:32;;;;;;;11.30;4.88;;;;;;;-4.17;54.48;100074.53;4775324;30;20154;-85
2023/01/27 12:13:20;;;;;;;9.73;4.15;;;;;;;-4.48;54.83;100067.78;4758209;30;20051;-81
2023/01/27 12:15:52;;;;;;;6.95;3.70;;;;;;;-4.71;55.29;100074.03;4759944;30;20478;-86
2023/01/27 12:18:19;;;;;;;16.92;3.75;;;;;;;-4.84;55.81;100075.00;4775766;30;20054;-83
2023/01/27 12:20:49;;;;;;;10.32;4.93;;;;;;;-5.02;55.92;100067.28;4763546;29;20082;-85
2023/01/27 12:23:30;;;;;;;10.68;5.13;;;;;;;-5.09;56.42;100070.78;4763624;30;20119;-83
2023/01/27 12:26:03;;;;;;;9.80;5.25;;;;;;;-5.00;56.37;100070.72;4763785;29;20112;-85